Accueil
METAR-TAF:

METAR-TAF

Aéroports :

Île Barter, Alaska, États-Unis

latitude: 70-08-02N, longitude: 143-34-37W, altitude: 2 m

Observation

Le bulletin a été fait il y a 18 minutes, à 00:02 UTC
Vent 12 kt de ouest
Température -18°C
Humidité 84%
Pression 1007 hPa
Visibilité: 9.7 km
Quelques nuages à une hauteur de 2600 ft
Nuages fragmentés à une hauteur de 3400 ft
Ciel couvert à une hauteur de 10000 ft
neige faible, brume

METAR: PABA 230002Z AUTO 26012KT 6SM -SN BR FEW026 BKN034 OVC100 M18/M20 A2975 RMK AO2 P0000 FZRANO TSNO

Heure: 15:20 (00:20 UTC)


TAF: absent

Observations et prévisions météorologiques de plus de 4000 aéroports (messages METAR et TAF).

Les stations disponibles sont représentées par des disques jaunes et rouges sur la carte.

Passer la souris dessus pour voir le nom de la station.

Cliquer dessus pour voir les observations et prévisions météorologiques.

Pour changer de carte: cliquez sur les boutons verts avec une croix noire pour zoomer, sur le bouton vert avec un tiret pour effectuer un zoom arrière, ou sur les flèches vertes pour les cartes adjacentes.


METAR-TAF: